Time;durP1;ratioP1;P1;durP2;ratioP2;P2;SDS_P1;SDS_P2;PMS_P1;PMS_P2;Temp;Humidity;BMP_temperature;BMP_pressure;BME280_temperature;BME280_humidity;BME280_pressure;Samples;Min_cycle;Max_cycle;Signal;HPM_P1;HPM_P2
2022/10/26 00:01:11;;;;;;;15.60;8.85;;;;;;;8.63;94.33;98050.89;1709651;83;21401;-72
2022/10/26 00:03:42;;;;;;;;;;;;;;;8.54;94.88;98053.72;1727123;83;21070;-73
2022/10/26 00:06:17;;;;;;;11.63;7.85;;;;;;;8.42;94.66;98062.29;1722708;83;20095;-72
2022/10/26 00:08:45;;;;;;;12.28;7.92;;;;;;;8.34;95.00;98060.23;1708353;84;21066;-72
2022/10/26 00:11:12;;;;;;;14.05;7.58;;;;;;;8.30;94.95;98070.00;1682349;85;20977;-72
2022/10/26 00:13:40;;;;;;;13.22;6.92;;;;;;;8.28;95.12;98065.21;1715250;83;21459;-72
2022/10/26 00:16:22;;;;;;;11.63;7.20;;;;;;;8.29;95.20;98066.06;1717338;82;21056;-72
2022/10/26 00:18:49;;;;;;;11.22;6.80;;;;;;;8.32;95.29;98064.70;1716217;83;21478;-72
2022/10/26 00:21:18;;;;;;;11.12;7.40;;;;;;;8.36;95.61;98061.53;1716903;83;21048;-72
2022/10/26 00:23:45;;;;;;;11.50;6.42;;;;;;;8.42;95.21;98066.25;1732083;83;20990;-72
2022/10/26 00:26:13;;;;;;;9.63;6.40;;;;;;;8.49;95.08;98066.13;1700972;83;21465;-72
2022/10/26 00:28:42;;;;;;;10.68;6.25;;;;;;;8.52;95.02;98070.91;1711940;82;20997;-72
2022/10/26 00:31:13;;;;;;;10.85;6.62;;;;;;;8.56;95.07;98075.71;1708175;84;20989;-72
2022/10/26 00:33:39;;;;;;;10.55;6.50;;;;;;;8.53;94.62;98076.64;1707483;83;21353;-73
2022/10/26 00:36:12;;;;;;;9.03;6.58;;;;;;;8.53;94.56;98074.44;1705321;84;21044;-73
2022/10/26 00:38:44;;;;;;;9.73;6.50;;;;;;;8.60;95.03;98078.72;1709844;83;21013;-72
2022/10/26 00:41:09;;;;;;;10.88;6.47;;;;;;;8.64;94.91;98076.41;1732626;82;21005;-72
2022/10/26 00:43:38;;;;;;;12.33;6.30;;;;;;;8.70;94.70;98073.66;1732907;83;20990;-72
2022/10/26 00:46:10;;;;;;;10.43;6.42;;;;;;;8.73;94.50;98071.41;1716212;82;21073;-72
2022/10/26 00:48:47;;;;;;;10.53;5.83;;;;;;;8.77;94.51;98074.41;1733269;82;21025;-72
2022/10/26 00:51:25;;;;;;;9.63;5.87;;;;;;;8.80;94.33;98069.51;1733100;82;20966;-72
2022/10/26 00:53:54;;;;;;;8.20;5.40;;;;;;;8.82;94.18;98078.26;1727357;83;21578;-72
2022/10/26 00:56:22;;;;;;;9.15;5.80;;;;;;;8.82;94.17;98070.33;1717146;83;21053;-73
2022/10/26 00:58:52;;;;;;;11.00;5.87;;;;;;;8.85;94.24;98080.37;1732980;83;21447;-73
2022/10/26 01:01:20;;;;;;;9.33;5.72;;;;;;;8.88;94.22;98078.59;1732948;82;20962;-72
2022/10/26 01:03:48;;;;;;;11.18;5.25;;;;;;;8.93;94.30;98074.92;1719022;83;21490;-72
2022/10/26 01:06:15;;;;;;;7.42;5.30;;;;;;;8.96;94.12;98068.70;1729849;83;21009;-73
2022/10/26 01:08:43;;;;;;;7.30;4.87;;;;;;;8.97;94.11;98070.00;1732997;82;21001;-71
2022/10/26 01:11:12;;;;;;;10.75;6.05;;;;;;;9.01;94.16;98070.79;1730390;82;21190;-70
2022/10/26 01:13:43;;;;;;;7.53;5.40;;;;;;;9.04;93.83;98067.20;1679594;85;21006;-71
2022/10/26 01:16:24;;;;;;;8.05;5.47;;;;;;;9.05;93.71;98067.17;1730083;83;20962;-71
2022/10/26 01:19:19;;;;;;;9.08;5.67;;;;;;;9.07;93.55;98068.47;1733008;83;21014;-72
2022/10/26 01:22:06;;;;;;;11.20;5.75;;;;;;;9.12;93.54;98074.53;1726472;83;21025;-72
2022/10/26 01:24:53;;;;;;;10.35;6.65;;;;;;;9.16;93.80;98074.88;1703634;84;20983;-72
2022/10/26 01:27:31;;;;;;;10.82;6.83;;;;;;;9.16;93.43;98072.23;1718996;83;20990;-72
2022/10/26 01:30:24;;;;;;;11.08;6.17;;;;;;;9.16;93.27;98080.17;1726272;82;20985;-72
2022/10/26 01:33:23;;;;;;;13.18;7.12;;;;;;;9.15;93.08;98075.79;1732792;83;21065;-72
2022/10/26 01:36:16;;;;;;;9.98;6.30;;;;;;;9.04;92.58;98076.45;1694295;83;21021;-72
2022/10/26 01:39:06;;;;;;;11.12;6.50;;;;;;;8.98;92.70;98082.30;1708095;84;20997;-72
2022/10/26 01:41:38;;;;;;;9.73;6.58;;;;;;;8.93;92.72;98083.33;1725357;83;21006;-72
2022/10/26 01:44:21;;;;;;;10.60;6.70;;;;;;;8.92;92.98;98086.41;1717019;83;21382;-72
2022/10/26 01:46:51;;;;;;;11.38;7.20;;;;;;;8.88;92.71;98084.73;1718481;82;21025;-72
2022/10/26 01:49:22;;;;;;;11.35;6.72;;;;;;;8.81;92.88;98089.27;1734164;82;20997;-72
2022/10/26 01:51:49;;;;;;;14.47;6.50;;;;;;;8.75;92.91;98086.77;1722095;82;21040;-72
2022/10/26 01:54:16;;;;;;;12.85;7.28;;;;;;;8.70;92.69;98090.84;1722375;82;20996;-72
2022/10/26 01:56:47;;;;;;;11.50;7.47;;;;;;;8.61;92.47;98078.25;1712875;82;20968;-71
2022/10/26 01:59:22;;;;;;;11.80;7.67;;;;;;;8.49;92.46;98085.93;1724823;82;21367;-72
2022/10/26 02:02:06;;;;;;;12.68;7.25;;;;;;;8.36;92.32;98087.50;1721541;82;20996;-72
2022/10/26 02:04:56;;;;;;;10.65;6.72;;;;;;;8.27;92.22;98089.84;1658879;83;20966;-72
2022/10/26 02:07:59;;;;;;;11.12;6.75;;;;;;;8.19;92.27;98085.19;1659912;85;21470;-72
2022/10/26 02:11:06;;;;;;;13.72;7.05;;;;;;;8.15;92.33;98093.58;1710412;82;21056;-72
2022/10/26 02:14:05;;;;;;;11.70;6.67;;;;;;;8.11;92.64;98084.44;1686606;83;21005;-71
2022/10/26 02:16:52;;;;;;;15.23;7.08;;;;;;;8.08;92.54;98084.05;1703062;84;21025;-71
2022/10/26 02:19:31;;;;;;;11.40;6.85;;;;;;;8.04;92.49;98083.68;1687226;82;21105;-71
2022/10/26 02:22:05;;;;;;;13.05;6.97;;;;;;;7.98;92.73;98087.32;1729711;82;21447;-71
2022/10/26 02:24:34;;;;;;;13.65;6.70;;;;;;;7.93;92.98;98082.10;1685588;84;21048;-72
2022/10/26 02:27:05;;;;;;;13.08;6.95;;;;;;;7.89;92.76;98085.69;1711691;83;20990;-72
2022/10/26 02:29:34;;;;;;;11.33;7.35;;;;;;;7.85;93.44;98086.63;1704147;83;21073;-72
2022/10/26 02:32:01;;;;;;;13.03;7.10;;;;;;;7.76;93.35;98085.47;1708192;83;20989;-71
2022/10/26 02:34:30;;;;;;;11.45;6.53;;;;;;;7.66;93.33;98083.01;1700192;82;21032;-72
2022/10/26 02:37:00;;;;;;;10.90;6.25;;;;;;;7.60;93.20;98087.51;1699308;84;20996;-72
2022/10/26 02:39:31;;;;;;;12.30;6.72;;;;;;;7.54;93.07;98085.83;1697031;84;21000;-72
2022/10/26 02:42:02;;;;;;;13.88;6.50;;;;;;;7.51;92.97;98079.27;1708403;83;20998;-71
2022/10/26 02:44:34;;;;;;;11.03;5.83;;;;;;;7.51;93.10;98101.25;1699380;82;21055;-72
2022/10/26 02:47:02;;;;;;;11.38;5.75;;;;;;;7.55;93.12;98091.98;1702805;84;21014;-72
2022/10/26 02:49:29;;;;;;;9.85;6.15;;;;;;;7.57;93.03;98091.50;1711787;83;21062;-72
2022/10/26 02:52:10;;;;;;;9.20;5.40;;;;;;;7.57;92.96;98090.18;1714019;82;21419;-71
2022/10/26 02:55:12;;;;;;;9.93;5.50;;;;;;;7.57;92.91;98093.70;1703054;83;20965;-72
2022/10/26 02:57:46;;;;;;;9.80;5.65;;;;;;;7.56;93.17;98093.72;1675542;85;20962;-71
2022/10/26 03:00:18;;;;;;;9.18;5.70;;;;;;;7.58;93.53;98112.58;1732135;81;21008;-71
2022/10/26 03:02:52;;;;;;;8.68;5.58;;;;;;;7.62;93.64;98122.62;1745032;82;21133;-71
2022/10/26 03:05:31;;;;;;;10.08;5.92;;;;;;;7.66;93.55;98125.65;1736346;82;21543;-71
2022/10/26 03:07:59;;;;;;;6.65;5.42;;;;;;;7.67;93.45;98131.34;1724576;82;21426;-71
2022/10/26 03:10:26;;;;;;;10.63;5.80;;;;;;;7.70;93.67;98136.58;1736343;82;21414;-71
2022/10/26 03:12:53;;;;;;;9.90;5.53;;;;;;;7.79;94.03;98125.89;1730018;82;20985;-71
2022/10/26 03:15:21;;;;;;;10.15;6.37;;;;;;;7.86;93.76;98126.66;1739019;82;21486;-71
2022/10/26 03:17:47;;;;;;;9.70;5.67;;;;;;;7.90;93.55;98136.71;1707359;84;21420;-71
2022/10/26 03:20:14;;;;;;;8.38;5.60;;;;;;;7.91;93.51;98132.73;1721046;83;21016;-71
2022/10/26 03:22:41;;;;;;;11.40;5.15;;;;;;;7.96;93.53;98135.72;1721166;83;21461;-71
2022/10/26 03:25:09;;;;;;;17.05;7.25;;;;;;;8.02;93.58;98139.13;1729039;82;21013;-71
2022/10/26 03:27:36;;;;;;;11.45;6.08;;;;;;;8.02;92.86;98144.41;1736365;82;20989;-71
2022/10/26 03:30:06;;;;;;;16.12;7.15;;;;;;;7.94;92.41;98147.64;1726363;82;20985;-71
2022/10/26 03:32:32;;;;;;;9.43;6.50;;;;;;;7.88;92.68;98142.44;1751485;82;20989;-71
2022/10/26 03:35:00;;;;;;;11.68;6.85;;;;;;;7.86;92.81;98145.56;1751374;82;20993;-72
2022/10/26 03:37:27;;;;;;;10.32;6.00;;;;;;;7.81;92.56;98152.69;1730375;81;21017;-71
2022/10/26 03:39:53;;;;;;;10.80;6.37;;;;;;;7.77;92.73;98153.19;1721321;83;21005;-71
2022/10/26 03:42:20;;;;;;;10.15;6.25;;;;;;;7.74;92.84;98154.55;1721198;83;21007;-71
2022/10/26 03:44:47;;;;;;;11.48;7.17;;;;;;;7.68;92.45;98143.63;1721350;83;20929;-71
2022/10/26 03:47:13;;;;;;;11.57;7.28;;;;;;;7.56;92.08;98135.45;1741862;82;21016;-71
2022/10/26 03:49:40;;;;;;;12.15;7.70;;;;;;;7.53;92.27;98148.70;1739499;82;21061;-71
2022/10/26 03:52:06;;;;;;;12.20;7.05;;;;;;;7.47;92.17;98155.40;1753952;82;20996;-71
2022/10/26 03:54:33;;;;;;;10.85;6.67;;;;;;;7.41;92.26;98148.44;1737442;82;20989;-71
2022/10/26 03:56:59;;;;;;;13.13;7.72;;;;;;;7.34;92.61;98146.33;1717272;83;20962;-71
2022/10/26 03:59:26;;;;;;;12.00;7.03;;;;;;;7.30;92.31;98153.00;1723676;82;21431;-72
2022/10/26 04:01:59;;;;;;;13.15;7.17;;;;;;;7.28;92.65;98148.17;1633173;82;21143;-71
2022/10/26 04:04:26;;;;;;;14.35;6.60;;;;;;;7.26;92.68;98146.88;1640982;84;21494;-71
2022/10/26 04:06:52;;;;;;;12.50;7.20;;;;;;;7.22;93.32;98144.73;1655330;84;20969;-71
2022/10/26 04:09:18;;;;;;;11.20;7.28;;;;;;;7.18;93.60;98148.30;1625508;84;21009;-72
2022/10/26 04:11:46;;;;;;;17.30;7.60;;;;;;;7.18;93.14;98157.52;1625631;84;21041;-71
2022/10/26 04:14:13;;;;;;;12.10;7.53;;;;;;;7.17;93.28;98162.81;1625908;84;21379;-72
2022/10/26 04:16:40;;;;;;;16.30;7.55;;;;;;;7.15;93.11;98157.58;1625387;84;21108;-72
2022/10/26 04:19:08;;;;;;;16.55;7.47;;;;;;;7.12;93.19;98154.55;1625377;84;21000;-72
2022/10/26 04:21:37;;;;;;;12.63;7.87;;;;;;;7.10;93.16;98156.31;1636344;84;21025;-72
2022/10/26 04:24:04;;;;;;;12.28;7.42;;;;;;;7.13;93.45;98160.67;1660367;84;21048;-72
2022/10/26 04:26:32;;;;;;;14.60;8.23;;;;;;;7.13;93.57;98156.28;1637735;86;21090;-72
2022/10/26 04:28:59;;;;;;;13.53;7.00;;;;;;;7.11;93.33;98155.87;1655710;85;21013;-72
2022/10/26 04:31:25;;;;;;;10.53;7.12;;;;;;;7.09;93.12;98161.59;1657878;84;21018;-73
2022/10/26 04:33:51;;;;;;;13.80;8.65;;;;;;;7.07;93.25;98156.37;1641131;84;21006;-73
2022/10/26 04:36:19;;;;;;;13.58;7.78;;;;;;;7.03;93.24;98157.30;1652957;84;20977;-73
2022/10/26 04:38:48;;;;;;;13.65;7.90;;;;;;;7.00;93.21;98162.59;1649771;84;21054;-73
2022/10/26 04:41:15;;;;;;;13.40;7.60;;;;;;;6.96;93.28;98162.20;1677552;84;21415;-72
2022/10/26 04:43:42;;;;;;;14.83;7.03;;;;;;;6.93;93.30;98161.78;1683196;84;21018;-72
2022/10/26 04:46:08;;;;;;;9.98;6.85;;;;;;;6.90;93.90;98171.06;1666163;84;21411;-73
2022/10/26 04:48:35;;;;;;;12.65;6.92;;;;;;;6.89;93.75;98168.45;1694106;84;21058;-73
2022/10/26 04:51:01;;;;;;;12.30;7.05;;;;;;;6.88;93.71;98171.98;1705400;84;20950;-72
2022/10/26 04:53:29;;;;;;;14.23;7.50;;;;;;;6.86;93.69;98171.98;1682209;84;20959;-72
2022/10/26 04:56:01;;;;;;;10.70;6.62;;;;;;;6.85;93.48;98171.56;1682832;84;21041;-73
2022/10/26 04:58:28;;;;;;;9.83;6.08;;;;;;;6.83;93.19;98174.22;1677808;84;21002;-72
2022/10/26 05:00:57;;;;;;;10.63;5.90;;;;;;;6.85;93.87;98182.11;1682671;83;21497;-73
2022/10/26 05:03:23;;;;;;;9.63;5.92;;;;;;;6.91;94.75;98187.73;1680776;83;21035;-73
2022/10/26 05:05:50;;;;;;;18.05;7.15;;;;;;;6.94;94.11;98183.29;1688163;83;21072;-72
2022/10/26 05:08:16;;;;;;;9.65;5.92;;;;;;;7.02;94.03;98198.16;1713334;83;21418;-73
2022/10/26 05:10:49;;;;;;;13.90;6.70;;;;;;;7.09;94.31;98203.33;1716017;83;21056;-72
2022/10/26 05:13:16;;;;;;;14.25;6.55;;;;;;;7.16;94.20;98201.50;1713502;83;21465;-73
2022/10/26 05:15:42;;;;;;;8.80;5.62;;;;;;;7.22;94.06;98194.81;1717218;83;21032;-73
2022/10/26 05:18:09;;;;;;;9.05;5.80;;;;;;;7.29;94.11;98207.48;1714935;83;21462;-73
2022/10/26 05:20:39;;;;;;;10.88;5.60;;;;;;;7.30;93.79;98199.98;1717989;83;21053;-73
2022/10/26 05:23:09;;;;;;;10.70;6.35;;;;;;;7.34;93.80;98206.09;1715616;83;21059;-73
2022/10/26 05:25:37;;;;;;;9.70;6.12;;;;;;;7.37;93.58;98208.70;1704362;83;21093;-73
2022/10/26 05:28:10;;;;;;;12.00;7.08;;;;;;;7.38;93.56;98206.05;1716935;83;20994;-72
2022/10/26 05:30:37;;;;;;;11.38;5.30;;;;;;;7.42;93.44;98214.78;1706066;83;20989;-73
2022/10/26 05:33:04;;;;;;;14.18;6.37;;;;;;;7.43;93.34;98215.66;1674928;83;21088;-73
2022/10/26 05:35:33;;;;;;;11.18;7.17;;;;;;;7.44;93.28;98222.24;1676576;83;21043;-73
2022/10/26 05:37:59;;;;;;;12.35;7.05;;;;;;;7.48;93.24;98220.42;1670207;83;21068;-73
2022/10/26 05:40:26;;;;;;;19.17;8.03;;;;;;;7.48;92.78;98229.19;1668533;84;21051;-73
2022/10/26 05:42:58;;;;;;;11.00;6.47;;;;;;;7.42;92.09;98229.28;1693681;83;21096;-73
2022/10/26 05:45:25;;;;;;;13.48;7.47;;;;;;;7.40;92.45;98232.40;1702855;82;20997;-73
2022/10/26 05:47:51;;;;;;;13.60;7.97;;;;;;;7.38;92.31;98228.45;1718412;83;21001;-73
2022/10/26 05:50:18;;;;;;;13.75;8.55;;;;;;;7.36;92.43;98235.96;1698189;83;20977;-72
2022/10/26 05:52:49;;;;;;;12.75;8.03;;;;;;;7.33;92.02;98242.14;1703620;83;21434;-72
2022/10/26 05:55:18;;;;;;;14.58;8.45;;;;;;;7.32;92.35;98246.11;1716479;83;20985;-73
2022/10/26 05:57:46;;;;;;;13.40;8.10;;;;;;;7.29;92.07;98248.77;1717413;83;21093;-73
2022/10/26 06:00:27;;;;;;;17.12;7.60;;;;;;;7.20;91.75;98251.09;1718641;83;20965;-73
2022/10/26 06:03:24;;;;;;;16.15;8.33;;;;;;;7.11;92.04;98242.38;1670264;83;21001;-72
2022/10/26 06:05:56;;;;;;;18.70;8.20;;;;;;;7.08;92.36;98248.14;1664487;83;21040;-72
2022/10/26 06:08:26;;;;;;;16.05;8.58;;;;;;;7.08;92.44;98249.46;1674973;83;21045;-72
2022/10/26 06:10:58;;;;;;;15.38;8.98;;;;;;;7.09;92.41;98245.93;1673851;83;20993;-73
2022/10/26 06:13:25;;;;;;;17.02;9.15;;;;;;;7.14;92.72;98254.66;1661463;84;21010;-73
2022/10/26 06:16:21;;;;;;;17.92;8.90;;;;;;;7.18;92.47;98248.92;1675168;83;21392;-72
2022/10/26 06:19:19;;;;;;;16.73;7.70;;;;;;;7.19;92.75;98257.25;1676990;83;20985;-72
2022/10/26 06:22:24;;;;;;;14.87;8.20;;;;;;;7.22;92.76;98259.84;1677028;83;21108;-72
2022/10/26 06:25:15;;;;;;;16.37;8.28;;;;;;;7.26;92.62;98252.32;1692676;85;21020;-72
2022/10/26 06:28:04;;;;;;;16.73;8.65;;;;;;;7.32;92.82;98248.75;1679686;84;20996;-73
2022/10/26 06:30:30;;;;;;;15.55;9.08;;;;;;;7.36;93.08;98258.38;1684869;84;21534;-72
2022/10/26 06:33:00;;;;;;;19.05;8.68;;;;;;;7.40;92.61;98253.03;1665213;85;21454;-73
2022/10/26 06:35:50;;;;;;;21.12;9.30;;;;;;;7.42;92.73;98256.11;1684078;83;21426;-73
2022/10/26 06:38:21;;;;;;;14.10;8.73;;;;;;;7.45;92.82;98249.46;1674886;84;21114;-72
2022/10/26 06:40:51;;;;;;;14.47;9.63;;;;;;;7.49;92.73;98252.06;1664956;85;21072;-73
2022/10/26 06:43:30;;;;;;;20.85;9.18;;;;;;;7.54;92.70;98253.30;1682247;85;20989;-72
2022/10/26 06:46:11;;;;;;;14.65;8.98;;;;;;;7.60;92.94;98261.59;1690069;84;21066;-72
2022/10/26 06:48:55;;;;;;;16.12;8.88;;;;;;;7.64;92.83;98267.26;1691483;83;20996;-72
2022/10/26 06:51:24;;;;;;;15.72;9.78;;;;;;;7.69;92.93;98264.11;1680947;85;21075;-72
2022/10/26 06:54:18;;;;;;;15.10;9.35;;;;;;;7.74;92.88;98268.88;1664837;85;21060;-72
2022/10/26 06:56:46;;;;;;;18.10;9.80;;;;;;;7.81;92.95;98272.74;1663823;85;21454;-72
2022/10/26 06:59:18;;;;;;;17.87;9.85;;;;;;;7.87;93.16;98273.53;1634861;85;21438;-72
2022/10/26 07:01:45;;;;;;;15.05;10.45;;;;;;;7.95;92.86;98276.49;1665167;83;21021;-73
2022/10/26 07:04:13;;;;;;;22.67;10.43;;;;;;;8.01;93.01;98267.19;1656873;83;21005;-73
2022/10/26 07:06:41;;;;;;;19.73;10.30;;;;;;;8.10;92.84;98263.53;1677630;83;21069;-73
2022/10/26 07:09:08;;;;;;;21.52;12.68;;;;;;;8.17;92.74;98271.77;1677459;83;20999;-72
2022/10/26 07:11:34;;;;;;;15.90;10.28;;;;;;;8.26;92.71;98270.77;1680361;83;21391;-72
2022/10/26 07:14:00;;;;;;;18.27;10.10;;;;;;;8.38;92.46;98273.67;1653465;83;21081;-72
2022/10/26 07:16:30;;;;;;;16.87;9.58;;;;;;;8.50;92.25;98268.60;1686378;83;21121;-73
2022/10/26 07:18:57;;;;;;;14.40;9.05;;;;;;;8.61;92.31;98265.38;1671579;83;21435;-72
2022/10/26 07:21:24;;;;;;;14.53;7.97;;;;;;;8.75;92.34;98274.38;1684163;83;21025;-72
2022/10/26 07:23:51;;;;;;;14.45;8.70;;;;;;;8.88;92.45;98272.38;1674980;83;21057;-72
2022/10/26 07:26:18;;;;;;;18.77;9.33;;;;;;;9.03;92.32;98271.68;1623263;84;21042;-73
2022/10/26 07:28:49;;;;;;;15.78;8.15;;;;;;;9.17;92.35;98274.94;1653635;83;21017;-73
2022/10/26 07:31:15;;;;;;;15.00;8.33;;;;;;;9.30;92.04;98272.91;1653349;83;21109;-73
2022/10/26 07:33:44;;;;;;;15.45;8.55;;;;;;;9.44;91.97;98281.03;1670309;84;21066;-73
2022/10/26 07:36:12;;;;;;;12.58;7.40;;;;;;;9.58;91.93;98269.72;1678032;84;21120;-73
2022/10/26 07:38:40;;;;;;;12.30;7.83;;;;;;;9.73;91.94;98273.82;1653356;83;21033;-73
2022/10/26 07:41:07;;;;;;;12.70;8.20;;;;;;;9.88;91.77;98275.24;1637710;84;21010;-73
2022/10/26 07:43:33;;;;;;;13.25;7.55;;;;;;;9.99;91.50;98273.69;1657210;83;21555;-72
2022/10/26 07:46:00;;;;;;;16.17;7.75;;;;;;;10.10;91.47;98270.80;1653534;83;21041;-72
2022/10/26 07:48:26;;;;;;;12.98;7.12;;;;;;;10.25;91.38;98266.02;1655105;83;21061;-72
2022/10/26 07:50:53;;;;;;;13.28;7.37;;;;;;;10.38;91.23;98265.30;1677722;83;21006;-73
2022/10/26 07:53:21;;;;;;;17.12;7.67;;;;;;;10.50;90.08;98266.33;1656813;84;20970;-73
2022/10/26 07:55:55;;;;;;;10.93;7.45;;;;;;;10.67;90.18;98262.41;1624374;84;21026;-73
2022/10/26 07:58:24;;;;;;;13.20;7.90;;;;;;;10.79;90.26;98263.84;1655810;83;20986;-73
2022/10/26 08:00:52;;;;;;;12.05;8.13;;;;;;;10.89;90.17;98259.18;1685564;83;21021;-74
2022/10/26 08:03:20;;;;;;;14.33;7.53;;;;;;;11.01;90.30;98261.96;1662382;83;21017;-73
2022/10/26 08:05:52;;;;;;;11.85;6.75;;;;;;;11.09;90.08;98260.83;1677651;83;21066;-73
2022/10/26 08:08:21;;;;;;;11.95;6.87;;;;;;;11.18;89.79;98264.15;1642403;84;20973;-74
2022/10/26 08:10:48;;;;;;;15.38;7.92;;;;;;;11.26;89.50;98262.61;1660027;84;20970;-73
2022/10/26 08:13:15;;;;;;;10.68;7.00;;;;;;;11.33;89.30;98262.83;1664625;84;21403;-73
2022/10/26 08:15:41;;;;;;;9.23;6.37;;;;;;;11.41;89.36;98259.98;1625407;84;21021;-73
2022/10/26 08:18:08;;;;;;;8.13;5.80;;;;;;;11.48;89.01;98261.54;1666882;84;21006;-73
2022/10/26 08:20:34;;;;;;;12.18;5.85;;;;;;;11.56;88.86;98254.67;1656979;85;21405;-73
2022/10/26 08:23:07;;;;;;;8.00;5.12;;;;;;;11.67;88.28;98252.56;1636632;84;21036;-74
2022/10/26 08:25:34;;;;;;;8.25;4.70;;;;;;;11.82;88.55;98245.93;1625061;84;21065;-73
2022/10/26 08:28:04;;;;;;;6.97;4.83;;;;;;;11.96;87.47;98252.61;1662725;84;21463;-73
2022/10/26 08:30:34;;;;;;;8.10;5.20;;;;;;;12.09;87.25;98247.81;1625764;84;21092;-73
2022/10/26 08:33:03;;;;;;;8.28;5.08;;;;;;;12.19;87.10;98247.92;1660773;84;21025;-74
2022/10/26 08:35:32;;;;;;;8.48;4.97;;;;;;;12.31;85.99;98248.44;1673365;84;20982;-73
2022/10/26 08:38:00;;;;;;;7.53;5.40;;;;;;;12.40;85.95;98249.47;1653084;84;21013;-73
2022/10/26 08:40:34;;;;;;;9.63;5.50;;;;;;;12.49;85.81;98239.86;1663181;84;21024;-73
2022/10/26 08:43:29;;;;;;;8.05;4.37;;;;;;;12.60;85.84;98249.27;1673087;84;21446;-73
2022/10/26 08:46:16;;;;;;;6.28;4.10;;;;;;;12.71;85.93;98242.26;1666952;84;21080;-73
2022/10/26 08:48:50;;;;;;;4.95;4.00;;;;;;;12.83;85.28;98247.14;1654409;83;21107;-73
2022/10/26 08:51:29;;;;;;;6.00;4.45;;;;;;;12.92;84.79;98246.81;1668497;84;21025;-73
2022/10/26 08:54:04;;;;;;;6.55;4.55;;;;;;;13.00;84.78;98247.87;1665511;84;21028;-73
2022/10/26 08:56:53;;;;;;;8.85;4.80;;;;;;;13.12;83.77;98256.36;1658996;84;21029;-73
2022/10/26 08:59:47;;;;;;;16.57;9.18;;;;;;;13.24;84.22;98255.91;1660071;84;21013;-73
2022/10/26 09:02:17;;;;;;;20.10;11.83;;;;;;;13.32;84.35;98252.52;1670860;84;21388;-73
2022/10/26 09:04:48;;;;;;;7.62;5.60;;;;;;;13.40;83.79;98256.22;1665807;84;21495;-73
2022/10/26 09:07:38;;;;;;;6.67;4.97;;;;;;;13.47;83.31;98259.56;1681087;83;21499;-73
2022/10/26 09:10:40;;;;;;;6.75;4.58;;;;;;;13.54;82.83;98258.88;1682722;83;21116;-74
2022/10/26 09:13:28;;;;;;;7.72;4.90;;;;;;;13.62;81.31;98263.42;1657581;83;21076;-73
2022/10/26 09:16:15;;;;;;;8.03;4.72;;;;;;;13.76;81.66;98260.26;1685519;83;21025;-73
2022/10/26 09:18:52;;;;;;;8.28;4.50;;;;;;;13.87;81.91;98269.14;1686755;83;21515;-73
2022/10/26 09:21:41;;;;;;;9.75;4.80;;;;;;;13.96;81.72;98268.79;1694408;83;20946;-72
2022/10/26 09:24:18;;;;;;;10.08;5.28;;;;;;;14.03;81.56;98261.43;1701790;83;21375;-72
2022/10/26 09:26:57;;;;;;;6.97;4.67;;;;;;;14.11;81.06;98269.12;1683424;83;21045;-73
2022/10/26 09:29:28;;;;;;;5.60;4.78;;;;;;;14.21;81.16;98258.48;1692146;83;20949;-73
2022/10/26 09:31:59;;;;;;;6.53;4.90;;;;;;;14.32;80.88;98266.55;1686830;83;20981;-74
2022/10/26 09:34:42;;;;;;;8.15;5.87;;;;;;;14.42;80.58;98264.36;1689988;83;21005;-73
2022/10/26 09:37:17;;;;;;;8.60;5.25;;;;;;;14.49;80.12;98260.04;1683125;83;21017;-73
2022/10/26 09:40:09;;;;;;;8.65;5.30;;;;;;;14.59;79.77;98262.33;1704054;83;21471;-72
2022/10/26 09:42:52;;;;;;;8.30;5.53;;;;;;;14.69;78.99;98255.67;1689877;83;21034;-72
2022/10/26 09:45:29;;;;;;;9.78;5.72;;;;;;;14.82;77.93;98260.53;1696209;83;21025;-72
2022/10/26 09:48:18;;;;;;;9.08;5.42;;;;;;;14.94;78.50;98255.14;1693501;83;21037;-74
2022/10/26 09:50:49;;;;;;;7.37;5.50;;;;;;;15.11;76.91;98256.58;1646165;86;21015;-73
2022/10/26 09:53:15;;;;;;;8.45;5.55;;;;;;;15.31;78.18;98255.70;1704388;83;21048;-74
2022/10/26 09:55:49;;;;;;;9.98;5.55;;;;;;;15.49;77.69;98250.94;1699639;83;20989;-74
2022/10/26 09:58:23;;;;;;;10.17;5.37;;;;;;;15.82;76.10;98255.67;1703733;83;20950;-74
2022/10/26 10:00:51;;;;;;;7.85;5.30;;;;;;;15.82;76.10;98255.67;1698109;83;21428;-73
2022/10/26 10:03:30;;;;;;;8.03;5.15;;;;;;;16.01;74.19;98258.81;1677166;83;21050;-74
2022/10/26 10:06:19;;;;;;;7.30;4.83;;;;;;;16.18;74.26;98264.23;1653581;83;21101;-74
2022/10/26 10:09:11;;;;;;;8.70;5.47;;;;;;;16.33;74.36;98261.75;1672822;83;21072;-72
2022/10/26 10:11:53;;;;;;;10.75;8.03;;;;;;;16.45;73.04;98258.45;1675320;85;21419;-74
2022/10/26 10:14:17;;;;;;;8.48;5.87;;;;;;;16.68;73.67;98252.44;1666598;83;21050;-75
2022/10/26 10:17:04;;;;;;;11.28;7.22;;;;;;;16.95;72.54;98257.34;1665621;83;21003;-75
2022/10/26 10:19:36;;;;;;;9.90;6.62;;;;;;;17.19;71.53;98257.50;1691048;83;21512;-73
2022/10/26 10:22:24;;;;;;;8.75;6.20;;;;;;;17.40;72.26;98263.05;1680583;83;21017;-73
2022/10/26 10:25:01;;;;;;;8.60;5.65;;;;;;;17.47;68.72;98268.95;1683546;83;21010;-73
2022/10/26 10:27:32;;;;;;;11.38;6.47;;;;;;;17.45;69.35;98263.28;1658938;85;20990;-73
2022/10/26 10:30:16;;;;;;;8.38;5.55;;;;;;;17.50;69.83;98255.86;1681003;83;21418;-74
2022/10/26 10:32:43;;;;;;;;;;;;;;;17.68;67.79;98259.35;1693123;83;21034;-72
2022/10/26 10:35:27;;;;;;;8.50;4.58;;;;;;;17.63;68.57;98257.41;1685966;83;20347;-72
2022/10/26 10:37:55;;;;;;;6.87;4.50;;;;;;;18.42;69.08;98257.08;1655540;85;21008;-72
2022/10/26 10:40:25;;;;;;;6.95;4.30;;;;;;;19.70;68.87;98249.51;1684884;83;21081;-73
2022/10/26 10:42:57;;;;;;;8.28;5.00;;;;;;;20.41;65.96;98242.77;1654777;86;21007;-72
2022/10/26 10:45:30;;;;;;;11.30;4.90;;;;;;;21.39;63.78;98232.63;1689356;83;21017;-73
2022/10/26 10:48:16;;;;;;;8.03;5.17;;;;;;;22.45;60.49;98233.66;1691522;84;21479;-73
2022/10/26 10:51:11;;;;;;;7.60;4.62;;;;;;;23.41;52.45;98216.06;1685873;83;21055;-72
2022/10/26 10:53:47;;;;;;;5.12;4.10;;;;;;;24.15;48.98;98218.73;1689268;83;21471;-73
2022/10/26 10:56:37;;;;;;;9.33;4.45;;;;;;;24.88;49.46;98209.98;1688686;85;21034;-71
2022/10/26 10:59:33;;;;;;;12.50;4.62;;;;;;;25.13;52.56;98221.94;1686360;83;21009;-73
2022/10/26 11:02:20;;;;;;;5.90;3.90;;;;;;;25.92;52.70;98221.86;1682668;83;21032;-73
2022/10/26 11:05:21;;;;;;;7.67;4.20;;;;;;;27.08;48.61;98219.56;1690120;85;21126;-74
2022/10/26 11:08:20;;;;;;;5.65;3.72;;;;;;;27.61;45.31;98214.59;1656912;83;21105;-74
2022/10/26 11:10:55;;;;;;;8.63;3.98;;;;;;;28.28;47.71;98211.67;1658741;86;21133;-74
2022/10/26 11:13:27;;;;;;;6.12;3.33;;;;;;;28.99;43.93;98213.21;1682484;83;21013;-73
2022/10/26 11:15:59;;;;;;;6.83;4.30;;;;;;;29.42;38.88;98211.13;1666677;84;21062;-74
2022/10/26 11:18:36;;;;;;;4.92;2.95;;;;;;;29.25;39.25;98215.13;1692122;83;21034;-74
2022/10/26 11:21:12;;;;;;;7.33;5.58;;;;;;;29.63;40.44;98219.46;1686547;83;21429;-74
2022/10/26 11:23:47;;;;;;;8.23;4.12;;;;;;;28.49;37.96;98218.72;1674872;83;21013;-74
2022/10/26 11:26:32;;;;;;;6.30;4.05;;;;;;;28.02;38.93;98225.16;1696077;83;20945;-74
2022/10/26 11:29:04;;;;;;;7.75;4.37;;;;;;;26.76;39.87;98231.08;1690951;83;21007;-74
2022/10/26 11:31:38;;;;;;;;;;;;;;;26.67;43.12;98228.73;1662588;85;20986;-74
2022/10/26 11:34:19;;;;;;;7.58;4.40;;;;;;;26.73;41.22;98226.79;1690108;83;20093;-74
2022/10/26 11:36:51;;;;;;;6.08;4.33;;;;;;;26.55;41.32;98222.57;1682503;83;21052;-73
2022/10/26 11:39:46;;;;;;;6.42;3.52;;;;;;;26.85;42.31;98227.50;1693947;83;21013;-73
2022/10/26 11:42:35;;;;;;;4.95;3.58;;;;;;;26.32;42.31;98231.48;1693262;83;21431;-74
2022/10/26 11:45:30;;;;;;;5.42;3.27;;;;;;;25.46;43.15;98233.56;1685304;83;21466;-74
2022/10/26 11:48:22;;;;;;;7.12;3.40;;;;;;;24.49;43.12;98237.59;1634883;86;21034;-73
2022/10/26 11:50:53;;;;;;;5.20;3.35;;;;;;;24.46;44.21;98235.13;1683190;83;20966;-73
2022/10/26 11:53:37;;;;;;;4.50;2.60;;;;;;;25.51;42.88;98242.63;1695033;83;21076;-73
2022/10/26 11:56:30;;;;;;;5.75;2.80;;;;;;;25.03;42.30;98240.35;1681337;83;21004;-73
2022/10/26 11:58:58;;;;;;;3.87;2.80;;;;;;;24.21;42.26;98237.69;1633114;86;21069;-73
2022/10/26 12:01:27;;;;;;;4.50;2.72;;;;;;;23.54;44.69;98242.48;1633100;86;21007;-73
2022/10/26 12:03:57;;;;;;;4.10;2.90;;;;;;;23.32;45.85;98241.94;1682484;83;21387;-73
2022/10/26 12:06:30;;;;;;;4.12;3.12;;;;;;;22.77;45.42;98247.94;1666350;83;20987;-74